Airport ID:KMHV
Update Time (UTC):21/04/2018 05:19
Wind Speed (Knots):17
Wind Direction (Magnetic):290
Temperature (°C):16
Dew Point (°C):-1
Humidity (%):32
Altimeter (inHg):30.11
Density Altitude (Feet):
Visibility (Miles):10+
Clouds (Hundreds of feet):CLR
Present Weather:
METAR:METAR KMHV 210500Z AUTO 30021KT 10SM CLR 16/M00 A3010 RMK A01

The data displayed is for advisory purposes only and is not to be used for flight planning or operations.

This page is not automatically refreshed. Reload the page to see current data.